sensor_id;sensor_type;location;lat;lon;timestamp;temperature;humidity
60717;DHT22;46566;52.700;6.192;2022-09-09T00:01:51;14.60;99.90
60717;DHT22;46566;52.700;6.192;2022-09-09T00:04:35;14.60;99.90
60717;DHT22;46566;52.700;6.192;2022-09-09T00:09:45;14.60;99.90
60717;DHT22;46566;52.700;6.192;2022-09-09T00:12:15;14.60;99.90
60717;DHT22;46566;52.700;6.192;2022-09-09T00:14:50;14.70;99.90
60717;DHT22;46566;52.700;6.192;2022-09-09T00:19:59;14.70;99.90
60717;DHT22;46566;52.700;6.192;2022-09-09T00:22:35;14.70;99.90
60717;DHT22;46566;52.700;6.192;2022-09-09T00:25:14;14.70;99.90
60717;DHT22;46566;52.700;6.192;2022-09-09T00:27:49;14.70;99.90
60717;DHT22;46566;52.700;6.192;2022-09-09T00:32:49;14.60;99.90
60717;DHT22;46566;52.700;6.192;2022-09-09T00:35:21;14.60;99.90
60717;DHT22;46566;52.700;6.192;2022-09-09T00:37:49;14.50;99.90
60717;DHT22;46566;52.700;6.192;2022-09-09T00:40:30;14.60;99.90
60717;DHT22;46566;52.700;6.192;2022-09-09T00:46:25;14.50;99.90
60717;DHT22;46566;52.700;6.192;2022-09-09T00:57:30;14.50;99.90
60717;DHT22;46566;52.700;6.192;2022-09-09T01:05:47;14.60;99.90
60717;DHT22;46566;52.700;6.192;2022-09-09T01:11:02;14.50;99.90
60717;DHT22;46566;52.700;6.192;2022-09-09T01:13:34;14.50;99.90
60717;DHT22;46566;52.700;6.192;2022-09-09T01:16:07;14.50;99.90
60717;DHT22;46566;52.700;6.192;2022-09-09T01:18:44;14.50;99.90
60717;DHT22;46566;52.700;6.192;2022-09-09T01:21:16;14.50;99.90
60717;DHT22;46566;52.700;6.192;2022-09-09T01:26:35;14.60;99.90
60717;DHT22;46566;52.700;6.192;2022-09-09T01:29:08;14.60;99.90
60717;DHT22;46566;52.700;6.192;2022-09-09T01:31:39;14.50;99.90
60717;DHT22;46566;52.700;6.192;2022-09-09T01:34:11;14.40;99.90
60717;DHT22;46566;52.700;6.192;2022-09-09T01:36:46;14.50;99.90
60717;DHT22;46566;52.700;6.192;2022-09-09T01:39:14;14.40;99.90
60717;DHT22;46566;52.700;6.192;2022-09-09T01:41:41;14.50;99.90
60717;DHT22;46566;52.700;6.192;2022-09-09T01:44:12;14.50;99.90
60717;DHT22;46566;52.700;6.192;2022-09-09T01:46:40;14.40;99.90
60717;DHT22;46566;52.700;6.192;2022-09-09T01:49:12;14.50;99.90
60717;DHT22;46566;52.700;6.192;2022-09-09T01:51:39;14.50;99.90
60717;DHT22;46566;52.700;6.192;2022-09-09T01:54:10;14.50;99.90
60717;DHT22;46566;52.700;6.192;2022-09-09T01:56:47;14.50;99.90
60717;DHT22;46566;52.700;6.192;2022-09-09T01:59:19;14.50;99.90
60717;DHT22;46566;52.700;6.192;2022-09-09T02:06:55;14.40;99.90
60717;DHT22;46566;52.700;6.192;2022-09-09T02:09:26;14.50;99.90
60717;DHT22;46566;52.700;6.192;2022-09-09T02:12:08;14.50;99.90
60717;DHT22;46566;52.700;6.192;2022-09-09T02:14:49;14.50;99.90
60717;DHT22;46566;52.700;6.192;2022-09-09T02:17:25;14.60;99.90
60717;DHT22;46566;52.700;6.192;2022-09-09T02:20:06;14.60;99.90
60717;DHT22;46566;52.700;6.192;2022-09-09T02:22:55;14.70;99.90
60717;DHT22;46566;52.700;6.192;2022-09-09T02:25:25;14.60;99.90
60717;DHT22;46566;52.700;6.192;2022-09-09T02:27:54;14.60;99.90
60717;DHT22;46566;52.700;6.192;2022-09-09T02:30:20;14.60;99.90
60717;DHT22;46566;52.700;6.192;2022-09-09T02:32:54;14.60;99.90
60717;DHT22;46566;52.700;6.192;2022-09-09T02:35:38;14.60;99.90
60717;DHT22;46566;52.700;6.192;2022-09-09T02:38:09;14.60;99.90
60717;DHT22;46566;52.700;6.192;2022-09-09T02:40:36;14.70;99.90
60717;DHT22;46566;52.700;6.192;2022-09-09T02:43:03;14.70;99.90
60717;DHT22;46566;52.700;6.192;2022-09-09T02:45:37;14.70;99.90
60717;DHT22;46566;52.700;6.192;2022-09-09T02:50:35;14.70;99.90
60717;DHT22;46566;52.700;6.192;2022-09-09T02:53:16;14.70;99.90
60717;DHT22;46566;52.700;6.192;2022-09-09T02:55:50;14.60;99.90
60717;DHT22;46566;52.700;6.192;2022-09-09T02:58:21;14.50;99.90
60717;DHT22;46566;52.700;6.192;2022-09-09T03:01:01;14.60;99.90
60717;DHT22;46566;52.700;6.192;2022-09-09T03:03:29;14.60;99.90
60717;DHT22;46566;52.700;6.192;2022-09-09T03:05:56;14.60;99.90
60717;DHT22;46566;52.700;6.192;2022-09-09T03:08:22;14.60;99.90
60717;DHT22;46566;52.700;6.192;2022-09-09T03:10:49;14.60;99.90
60717;DHT22;46566;52.700;6.192;2022-09-09T03:13:15;14.60;99.90
60717;DHT22;46566;52.700;6.192;2022-09-09T03:15:41;14.60;99.90
60717;DHT22;46566;52.700;6.192;2022-09-09T03:18:12;14.50;99.90
60717;DHT22;46566;52.700;6.192;2022-09-09T03:20:38;14.60;99.90
60717;DHT22;46566;52.700;6.192;2022-09-09T03:23:04;14.50;99.90
60717;DHT22;46566;52.700;6.192;2022-09-09T03:25:29;14.50;99.90
60717;DHT22;46566;52.700;6.192;2022-09-09T03:27:56;14.50;99.90
60717;DHT22;46566;52.700;6.192;2022-09-09T03:30:27;14.50;99.90
60717;DHT22;46566;52.700;6.192;2022-09-09T03:32:55;14.50;99.90
60717;DHT22;46566;52.700;6.192;2022-09-09T03:35:22;14.50;99.90
60717;DHT22;46566;52.700;6.192;2022-09-09T03:37:48;14.40;99.90
60717;DHT22;46566;52.700;6.192;2022-09-09T03:40:15;14.40;99.90
60717;DHT22;46566;52.700;6.192;2022-09-09T03:42:43;14.40;99.90
60717;DHT22;46566;52.700;6.192;2022-09-09T03:45:09;14.40;99.90
60717;DHT22;46566;52.700;6.192;2022-09-09T03:47:38;14.30;99.90
60717;DHT22;46566;52.700;6.192;2022-09-09T03:50:06;14.30;99.90
60717;DHT22;46566;52.700;6.192;2022-09-09T03:52:39;14.30;99.90
60717;DHT22;46566;52.700;6.192;2022-09-09T03:55:08;14.30;99.90
60717;DHT22;46566;52.700;6.192;2022-09-09T03:57:35;14.20;99.90
60717;DHT22;46566;52.700;6.192;2022-09-09T04:00:05;14.20;99.90
60717;DHT22;46566;52.700;6.192;2022-09-09T04:02:42;14.20;99.90
60717;DHT22;46566;52.700;6.192;2022-09-09T04:05:11;14.20;99.90
60717;DHT22;46566;52.700;6.192;2022-09-09T04:07:39;14.20;99.90
60717;DHT22;46566;52.700;6.192;2022-09-09T04:10:06;14.10;99.90
60717;DHT22;46566;52.700;6.192;2022-09-09T04:12:33;14.10;99.90
60717;DHT22;46566;52.700;6.192;2022-09-09T04:15:00;14.10;99.90
60717;DHT22;46566;52.700;6.192;2022-09-09T04:17:28;14.10;99.90
60717;DHT22;46566;52.700;6.192;2022-09-09T04:19:53;14.10;99.90
60717;DHT22;46566;52.700;6.192;2022-09-09T04:22:19;14.10;99.90
60717;DHT22;46566;52.700;6.192;2022-09-09T04:24:46;14.10;99.90
60717;DHT22;46566;52.700;6.192;2022-09-09T04:27:12;14.10;99.90
60717;DHT22;46566;52.700;6.192;2022-09-09T04:29:38;14.00;99.90
60717;DHT22;46566;52.700;6.192;2022-09-09T04:32:04;14.00;99.90
60717;DHT22;46566;52.700;6.192;2022-09-09T04:34:31;14.00;99.90
60717;DHT22;46566;52.700;6.192;2022-09-09T04:36:58;14.00;99.90
60717;DHT22;46566;52.700;6.192;2022-09-09T04:39:25;13.90;99.90
60717;DHT22;46566;52.700;6.192;2022-09-09T04:41:51;14.00;99.90
60717;DHT22;46566;52.700;6.192;2022-09-09T04:44:17;13.90;99.90
60717;DHT22;46566;52.700;6.192;2022-09-09T04:46:43;13.90;99.90
60717;DHT22;46566;52.700;6.192;2022-09-09T04:49:09;13.90;99.90
60717;DHT22;46566;52.700;6.192;2022-09-09T04:51:35;13.90;99.90
60717;DHT22;46566;52.700;6.192;2022-09-09T04:54:02;13.90;99.90
60717;DHT22;46566;52.700;6.192;2022-09-09T04:56:27;13.90;99.90
60717;DHT22;46566;52.700;6.192;2022-09-09T04:58:56;13.90;99.90
60717;DHT22;46566;52.700;6.192;2022-09-09T05:01:28;13.90;99.90
60717;DHT22;46566;52.700;6.192;2022-09-09T05:04:01;13.90;99.90
60717;DHT22;46566;52.700;6.192;2022-09-09T05:06:27;13.90;99.90
60717;DHT22;46566;52.700;6.192;2022-09-09T05:08:57;13.80;99.90
60717;DHT22;46566;52.700;6.192;2022-09-09T05:11:28;13.80;99.90
60717;DHT22;46566;52.700;6.192;2022-09-09T05:13:59;13.80;99.90
60717;DHT22;46566;52.700;6.192;2022-09-09T05:16:25;13.80;99.90
60717;DHT22;46566;52.700;6.192;2022-09-09T05:18:50;13.80;99.90
60717;DHT22;46566;52.700;6.192;2022-09-09T05:21:18;13.80;99.90
60717;DHT22;46566;52.700;6.192;2022-09-09T05:23:45;13.80;99.90
60717;DHT22;46566;52.700;6.192;2022-09-09T05:26:16;13.80;99.90
60717;DHT22;46566;52.700;6.192;2022-09-09T05:28:42;13.80;99.90
60717;DHT22;46566;52.700;6.192;2022-09-09T05:31:10;13.70;99.90
60717;DHT22;46566;52.700;6.192;2022-09-09T05:33:41;13.80;99.90
60717;DHT22;46566;52.700;6.192;2022-09-09T05:36:19;13.70;99.90
60717;DHT22;46566;52.700;6.192;2022-09-09T05:38:48;13.70;99.90
60717;DHT22;46566;52.700;6.192;2022-09-09T05:41:15;13.70;99.90
60717;DHT22;46566;52.700;6.192;2022-09-09T05:43:42;13.70;99.90
60717;DHT22;46566;52.700;6.192;2022-09-09T05:46:12;13.70;99.90
60717;DHT22;46566;52.700;6.192;2022-09-09T05:48:40;13.70;99.90
60717;DHT22;46566;52.700;6.192;2022-09-09T05:51:09;13.70;99.90
60717;DHT22;46566;52.700;6.192;2022-09-09T05:53:37;13.70;99.90
60717;DHT22;46566;52.700;6.192;2022-09-09T05:56:06;13.70;99.90
60717;DHT22;46566;52.700;6.192;2022-09-09T05:58:34;13.70;99.90
60717;DHT22;46566;52.700;6.192;2022-09-09T06:01:05;13.70;99.90
60717;DHT22;46566;52.700;6.192;2022-09-09T06:03:33;13.80;99.90
60717;DHT22;46566;52.700;6.192;2022-09-09T06:06:01;13.70;99.90
60717;DHT22;46566;52.700;6.192;2022-09-09T06:08:27;13.80;99.90
60717;DHT22;46566;52.700;6.192;2022-09-09T06:10:53;13.80;99.90
60717;DHT22;46566;52.700;6.192;2022-09-09T06:13:29;13.90;99.90
60717;DHT22;46566;52.700;6.192;2022-09-09T06:15:54;13.90;99.90
60717;DHT22;46566;52.700;6.192;2022-09-09T06:18:21;13.90;99.90
60717;DHT22;46566;52.700;6.192;2022-09-09T06:21:16;13.90;99.90
60717;DHT22;46566;52.700;6.192;2022-09-09T06:23:44;13.90;99.90
60717;DHT22;46566;52.700;6.192;2022-09-09T06:26:18;13.90;99.90
60717;DHT22;46566;52.700;6.192;2022-09-09T06:28:47;14.00;99.90
60717;DHT22;46566;52.700;6.192;2022-09-09T06:31:15;14.00;99.90
60717;DHT22;46566;52.700;6.192;2022-09-09T06:33:43;14.10;99.90
60717;DHT22;46566;52.700;6.192;2022-09-09T06:36:13;14.10;99.90
60717;DHT22;46566;52.700;6.192;2022-09-09T06:38:41;14.20;99.90
60717;DHT22;46566;52.700;6.192;2022-09-09T06:41:10;14.20;99.90
60717;DHT22;46566;52.700;6.192;2022-09-09T06:43:38;14.30;99.90
60717;DHT22;46566;52.700;6.192;2022-09-09T06:46:09;14.30;99.90
60717;DHT22;46566;52.700;6.192;2022-09-09T06:48:36;14.30;99.90
60717;DHT22;46566;52.700;6.192;2022-09-09T06:53:36;14.40;99.90
60717;DHT22;46566;52.700;6.192;2022-09-09T06:56:23;14.50;99.90
60717;DHT22;46566;52.700;6.192;2022-09-09T06:58:50;14.50;99.90
60717;DHT22;46566;52.700;6.192;2022-09-09T07:01:25;14.50;99.90
60717;DHT22;46566;52.700;6.192;2022-09-09T07:03:53;14.50;99.90
60717;DHT22;46566;52.700;6.192;2022-09-09T07:06:25;14.60;99.90
60717;DHT22;46566;52.700;6.192;2022-09-09T07:09:03;14.70;99.90
60717;DHT22;46566;52.700;6.192;2022-09-09T07:11:41;14.80;99.90
60717;DHT22;46566;52.700;6.192;2022-09-09T07:14:08;14.80;99.90
60717;DHT22;46566;52.700;6.192;2022-09-09T07:16:34;14.90;99.90
60717;DHT22;46566;52.700;6.192;2022-09-09T07:19:03;15.00;99.90
60717;DHT22;46566;52.700;6.192;2022-09-09T07:21:31;15.00;99.90
60717;DHT22;46566;52.700;6.192;2022-09-09T07:23:57;15.10;99.90
60717;DHT22;46566;52.700;6.192;2022-09-09T07:26:28;15.10;99.90
60717;DHT22;46566;52.700;6.192;2022-09-09T07:28:55;15.10;99.90
60717;DHT22;46566;52.700;6.192;2022-09-09T07:31:31;15.20;99.90
60717;DHT22;46566;52.700;6.192;2022-09-09T07:33:58;15.20;99.90
60717;DHT22;46566;52.700;6.192;2022-09-09T07:36:28;15.20;99.90
60717;DHT22;46566;52.700;6.192;2022-09-09T07:38:57;15.30;99.90
60717;DHT22;46566;52.700;6.192;2022-09-09T07:41:29;15.30;99.90
60717;DHT22;46566;52.700;6.192;2022-09-09T07:43:56;15.40;99.90
60717;DHT22;46566;52.700;6.192;2022-09-09T07:46:25;15.40;99.90
60717;DHT22;46566;52.700;6.192;2022-09-09T07:48:53;15.40;99.90
60717;DHT22;46566;52.700;6.192;2022-09-09T07:51:36;15.50;99.90
60717;DHT22;46566;52.700;6.192;2022-09-09T07:54:05;15.50;99.90
60717;DHT22;46566;52.700;6.192;2022-09-09T07:56:33;15.60;99.90
60717;DHT22;46566;52.700;6.192;2022-09-09T07:58:59;15.70;99.90
60717;DHT22;46566;52.700;6.192;2022-09-09T08:03:56;16.70;99.90
60717;DHT22;46566;52.700;6.192;2022-09-09T08:06:30;18.00;99.90
60717;DHT22;46566;52.700;6.192;2022-09-09T08:08:56;18.40;99.90
60717;DHT22;46566;52.700;6.192;2022-09-09T08:11:24;18.70;99.90
60717;DHT22;46566;52.700;6.192;2022-09-09T08:21:23;20.30;99.90
60717;DHT22;46566;52.700;6.192;2022-09-09T08:23:51;20.20;99.90
60717;DHT22;46566;52.700;6.192;2022-09-09T08:26:20;20.10;99.90
60717;DHT22;46566;52.700;6.192;2022-09-09T08:38:49;20.10;99.90
60717;DHT22;46566;52.700;6.192;2022-09-09T08:51:42;18.80;99.90
60717;DHT22;46566;52.700;6.192;2022-09-09T08:54:09;18.40;99.90
60717;DHT22;46566;52.700;6.192;2022-09-09T08:56:36;18.10;99.90
60717;DHT22;46566;52.700;6.192;2022-09-09T08:59:03;17.90;99.90
60717;DHT22;46566;52.700;6.192;2022-09-09T09:02:02;17.80;99.90
60717;DHT22;46566;52.700;6.192;2022-09-09T09:10:51;17.70;99.90
60717;DHT22;46566;52.700;6.192;2022-09-09T09:13:47;17.50;99.90
60717;DHT22;46566;52.700;6.192;2022-09-09T09:16:54;17.50;99.90
60717;DHT22;46566;52.700;6.192;2022-09-09T09:19:22;17.50;99.90
60717;DHT22;46566;52.700;6.192;2022-09-09T09:30:24;17.40;99.90
60717;DHT22;46566;52.700;6.192;2022-09-09T09:35:35;17.50;99.90
60717;DHT22;46566;52.700;6.192;2022-09-09T09:38:01;17.60;99.90
60717;DHT22;46566;52.700;6.192;2022-09-09T09:40:28;17.60;99.90
60717;DHT22;46566;52.700;6.192;2022-09-09T09:42:58;17.70;99.90
60717;DHT22;46566;52.700;6.192;2022-09-09T09:45:50;17.60;99.90
60717;DHT22;46566;52.700;6.192;2022-09-09T09:48:17;17.70;99.90
60717;DHT22;46566;52.700;6.192;2022-09-09T09:54:21;17.80;99.90
60717;DHT22;46566;52.700;6.192;2022-09-09T09:57:14;17.80;99.90
60717;DHT22;46566;52.700;6.192;2022-09-09T09:59:43;17.80;99.90
60717;DHT22;46566;52.700;6.192;2022-09-09T10:02:50;17.80;99.90
60717;DHT22;46566;52.700;6.192;2022-09-09T10:05:23;17.80;99.90
60717;DHT22;46566;52.700;6.192;2022-09-09T10:19:32;17.80;99.90
60717;DHT22;46566;52.700;6.192;2022-09-09T10:22:11;17.70;99.90
60717;DHT22;46566;52.700;6.192;2022-09-09T10:25:12;17.70;99.90
60717;DHT22;46566;52.700;6.192;2022-09-09T10:31:24;17.80;99.90
60717;DHT22;46566;52.700;6.192;2022-09-09T10:36:38;17.80;99.90
60717;DHT22;46566;52.700;6.192;2022-09-09T10:51:05;17.90;99.90
60717;DHT22;46566;52.700;6.192;2022-09-09T10:57:03;17.90;99.90
60717;DHT22;46566;52.700;6.192;2022-09-09T10:59:40;17.90;99.90
60717;DHT22;46566;52.700;6.192;2022-09-09T11:06:05;17.90;99.90
60717;DHT22;46566;52.700;6.192;2022-09-09T11:08:16;18.00;99.90
60717;DHT22;46566;52.700;6.192;2022-09-09T11:16:33;18.20;99.90
60717;DHT22;46566;52.700;6.192;2022-09-09T11:22:08;18.40;99.90
60717;DHT22;46566;52.700;6.192;2022-09-09T11:25:05;18.60;99.90
60717;DHT22;46566;52.700;6.192;2022-09-09T11:39:57;19.50;99.90
60717;DHT22;46566;52.700;6.192;2022-09-09T11:42:25;19.70;99.90
60717;DHT22;46566;52.700;6.192;2022-09-09T11:45:30;19.70;99.90
60717;DHT22;46566;52.700;6.192;2022-09-09T11:48:00;19.60;99.90
60717;DHT22;46566;52.700;6.192;2022-09-09T11:53:22;19.50;99.90
60717;DHT22;46566;52.700;6.192;2022-09-09T11:59:25;19.30;99.90
60717;DHT22;46566;52.700;6.192;2022-09-09T12:02:26;19.20;99.90
60717;DHT22;46566;52.700;6.192;2022-09-09T12:07:56;19.00;99.90
60717;DHT22;46566;52.700;6.192;2022-09-09T12:10:28;19.00;99.90
60717;DHT22;46566;52.700;6.192;2022-09-09T12:12:55;19.00;99.90
60717;DHT22;46566;52.700;6.192;2022-09-09T12:15:49;19.00;99.90
60717;DHT22;46566;52.700;6.192;2022-09-09T12:25:12;19.70;99.90
60717;DHT22;46566;52.700;6.192;2022-09-09T12:28:17;20.00;99.90
60717;DHT22;46566;52.700;6.192;2022-09-09T12:34:24;19.80;99.90
60717;DHT22;46566;52.700;6.192;2022-09-09T12:42:43;19.50;99.90
60717;DHT22;46566;52.700;6.192;2022-09-09T12:45:20;19.40;99.90
60717;DHT22;46566;52.700;6.192;2022-09-09T12:48:11;19.30;99.90
60717;DHT22;46566;52.700;6.192;2022-09-09T12:50:46;19.30;99.90
60717;DHT22;46566;52.700;6.192;2022-09-09T12:58:38;18.80;99.90
60717;DHT22;46566;52.700;6.192;2022-09-09T13:01:05;18.80;99.90
60717;DHT22;46566;52.700;6.192;2022-09-09T13:03:33;18.80;99.90
60717;DHT22;46566;52.700;6.192;2022-09-09T13:08:44;18.60;99.90
60717;DHT22;46566;52.700;6.192;2022-09-09T13:11:17;18.40;99.90
60717;DHT22;46566;52.700;6.192;2022-09-09T13:14:06;18.20;99.90
60717;DHT22;46566;52.700;6.192;2022-09-09T13:16:34;18.00;99.90
60717;DHT22;46566;52.700;6.192;2022-09-09T13:19:09;18.10;99.90
60717;DHT22;46566;52.700;6.192;2022-09-09T13:21:57;18.10;99.90
60717;DHT22;46566;52.700;6.192;2022-09-09T13:24:34;18.20;99.90
60717;DHT22;46566;52.700;6.192;2022-09-09T13:27:01;18.40;99.90
60717;DHT22;46566;52.700;6.192;2022-09-09T13:29:31;18.60;99.90
60717;DHT22;46566;52.700;6.192;2022-09-09T13:35:01;18.90;99.90
60717;DHT22;46566;52.700;6.192;2022-09-09T13:37:54;18.80;99.90
60717;DHT22;46566;52.700;6.192;2022-09-09T13:40:22;18.80;99.90
60717;DHT22;46566;52.700;6.192;2022-09-09T13:42:52;18.70;99.90
60717;DHT22;46566;52.700;6.192;2022-09-09T13:45:52;18.70;99.90
60717;DHT22;46566;52.700;6.192;2022-09-09T13:48:19;18.70;99.90
60717;DHT22;46566;52.700;6.192;2022-09-09T13:50:55;18.70;99.90
60717;DHT22;46566;52.700;6.192;2022-09-09T13:56:18;19.00;99.90
60717;DHT22;46566;52.700;6.192;2022-09-09T13:58:44;19.10;99.90
60717;DHT22;46566;52.700;6.192;2022-09-09T14:01:26;19.10;99.90
60717;DHT22;46566;52.700;6.192;2022-09-09T14:03:53;19.30;99.90
60717;DHT22;46566;52.700;6.192;2022-09-09T14:06:19;19.30;99.90
60717;DHT22;46566;52.700;6.192;2022-09-09T14:08:48;19.30;99.90
60717;DHT22;46566;52.700;6.192;2022-09-09T14:13:59;19.20;99.90
60717;DHT22;46566;52.700;6.192;2022-09-09T14:16:26;19.10;99.90
60717;DHT22;46566;52.700;6.192;2022-09-09T14:18:53;19.00;99.90
60717;DHT22;46566;52.700;6.192;2022-09-09T14:21:42;18.90;99.90
60717;DHT22;46566;52.700;6.192;2022-09-09T14:24:08;18.90;99.90
60717;DHT22;46566;52.700;6.192;2022-09-09T14:26:33;18.80;99.90
60717;DHT22;46566;52.700;6.192;2022-09-09T14:28:59;18.70;99.90
60717;DHT22;46566;52.700;6.192;2022-09-09T14:31:26;18.70;99.90
60717;DHT22;46566;52.700;6.192;2022-09-09T14:34:17;18.60;99.90
60717;DHT22;46566;52.700;6.192;2022-09-09T14:36:43;18.70;99.90
60717;DHT22;46566;52.700;6.192;2022-09-09T14:39:10;18.70;99.90
60717;DHT22;46566;52.700;6.192;2022-09-09T14:41:36;18.80;99.90
60717;DHT22;46566;52.700;6.192;2022-09-09T14:44:27;18.90;99.90
60717;DHT22;46566;52.700;6.192;2022-09-09T14:46:52;18.80;99.90
60717;DHT22;46566;52.700;6.192;2022-09-09T14:49:20;18.90;99.90
60717;DHT22;46566;52.700;6.192;2022-09-09T14:51:45;18.80;99.90
60717;DHT22;46566;52.700;6.192;2022-09-09T14:54:29;18.90;99.90
60717;DHT22;46566;52.700;6.192;2022-09-09T14:56:55;19.00;99.90
60717;DHT22;46566;52.700;6.192;2022-09-09T14:59:22;19.00;99.90
60717;DHT22;46566;52.700;6.192;2022-09-09T15:01:48;19.00;99.90
60717;DHT22;46566;52.700;6.192;2022-09-09T15:04:29;18.90;99.90
60717;DHT22;46566;52.700;6.192;2022-09-09T15:06:55;18.90;99.90
60717;DHT22;46566;52.700;6.192;2022-09-09T15:09:21;18.90;99.90
60717;DHT22;46566;52.700;6.192;2022-09-09T15:11:47;18.90;99.90
60717;DHT22;46566;52.700;6.192;2022-09-09T15:14:13;18.80;99.90
60717;DHT22;46566;52.700;6.192;2022-09-09T15:17:04;18.80;99.90
60717;DHT22;46566;52.700;6.192;2022-09-09T15:19:29;18.80;99.90
60717;DHT22;46566;52.700;6.192;2022-09-09T15:21:55;18.80;99.90
60717;DHT22;46566;52.700;6.192;2022-09-09T15:24:22;18.80;99.90
60717;DHT22;46566;52.700;6.192;2022-09-09T15:29:46;18.80;99.90
60717;DHT22;46566;52.700;6.192;2022-09-09T15:32:15;18.80;99.90
60717;DHT22;46566;52.700;6.192;2022-09-09T15:37:39;18.80;99.90
60717;DHT22;46566;52.700;6.192;2022-09-09T15:40:05;18.70;99.90
60717;DHT22;46566;52.700;6.192;2022-09-09T15:42:57;18.70;99.90
60717;DHT22;46566;52.700;6.192;2022-09-09T15:48:35;18.60;99.90
60717;DHT22;46566;52.700;6.192;2022-09-09T15:51:02;18.60;99.90
60717;DHT22;46566;52.700;6.192;2022-09-09T15:53:29;18.60;99.90
60717;DHT22;46566;52.700;6.192;2022-09-09T15:55:58;18.50;99.90
60717;DHT22;46566;52.700;6.192;2022-09-09T15:58:44;18.50;99.90
60717;DHT22;46566;52.700;6.192;2022-09-09T16:01:10;18.40;99.90
60717;DHT22;46566;52.700;6.192;2022-09-09T16:03:42;18.40;99.90
60717;DHT22;46566;52.700;6.192;2022-09-09T16:06:33;18.40;99.90
60717;DHT22;46566;52.700;6.192;2022-09-09T16:09:01;18.40;99.90
60717;DHT22;46566;52.700;6.192;2022-09-09T16:11:30;18.40;99.90
60717;DHT22;46566;52.700;6.192;2022-09-09T16:13:56;18.40;99.90
60717;DHT22;46566;52.700;6.192;2022-09-09T16:16:48;18.40;99.90
60717;DHT22;46566;52.700;6.192;2022-09-09T16:19:17;18.40;99.90
60717;DHT22;46566;52.700;6.192;2022-09-09T16:21:48;18.40;99.90
60717;DHT22;46566;52.700;6.192;2022-09-09T16:24:29;18.40;99.90
60717;DHT22;46566;52.700;6.192;2022-09-09T16:26:55;18.40;99.90
60717;DHT22;46566;52.700;6.192;2022-09-09T16:29:21;18.40;99.90
60717;DHT22;46566;52.700;6.192;2022-09-09T16:31:48;18.30;99.90
60717;DHT22;46566;52.700;6.192;2022-09-09T16:34:15;18.40;99.90
60717;DHT22;46566;52.700;6.192;2022-09-09T16:37:02;18.30;99.90
60717;DHT22;46566;52.700;6.192;2022-09-09T16:39:28;18.30;99.90
60717;DHT22;46566;52.700;6.192;2022-09-09T16:41:54;18.30;99.90
60717;DHT22;46566;52.700;6.192;2022-09-09T16:44:20;18.30;99.90
60717;DHT22;46566;52.700;6.192;2022-09-09T16:47:11;18.30;99.90
60717;DHT22;46566;52.700;6.192;2022-09-09T16:49:37;18.30;99.90
60717;DHT22;46566;52.700;6.192;2022-09-09T16:52:04;18.20;99.90
60717;DHT22;46566;52.700;6.192;2022-09-09T16:54:29;18.20;99.90
60717;DHT22;46566;52.700;6.192;2022-09-09T16:59:56;18.20;99.90
60717;DHT22;46566;52.700;6.192;2022-09-09T17:02:25;18.10;99.90
60717;DHT22;46566;52.700;6.192;2022-09-09T17:05:16;18.10;99.90
60717;DHT22;46566;52.700;6.192;2022-09-09T17:07:41;18.00;99.90
60717;DHT22;46566;52.700;6.192;2022-09-09T17:10:09;18.00;99.90
60717;DHT22;46566;52.700;6.192;2022-09-09T17:13:00;18.00;99.90
60717;DHT22;46566;52.700;6.192;2022-09-09T17:15:27;17.90;99.90
60717;DHT22;46566;52.700;6.192;2022-09-09T17:17:53;17.90;99.90
60717;DHT22;46566;52.700;6.192;2022-09-09T17:20:20;17.90;99.90
60717;DHT22;46566;52.700;6.192;2022-09-09T17:23:11;17.80;99.90
60717;DHT22;46566;52.700;6.192;2022-09-09T17:25:41;17.80;99.90
60717;DHT22;46566;52.700;6.192;2022-09-09T17:28:07;17.80;99.90
60717;DHT22;46566;52.700;6.192;2022-09-09T17:33:47;17.70;99.90
60717;DHT22;46566;52.700;6.192;2022-09-09T17:39:03;17.60;99.90
60717;DHT22;46566;52.700;6.192;2022-09-09T17:41:39;17.60;99.90
60717;DHT22;46566;52.700;6.192;2022-09-09T17:44:06;17.60;99.90
60717;DHT22;46566;52.700;6.192;2022-09-09T17:46:50;17.50;99.90
60717;DHT22;46566;52.700;6.192;2022-09-09T17:49:16;17.50;99.90
60717;DHT22;46566;52.700;6.192;2022-09-09T17:51:45;17.40;99.90
60717;DHT22;46566;52.700;6.192;2022-09-09T17:54:14;17.40;99.90
60717;DHT22;46566;52.700;6.192;2022-09-09T17:57:00;17.30;99.90
60717;DHT22;46566;52.700;6.192;2022-09-09T17:59:26;17.20;99.90
60717;DHT22;46566;52.700;6.192;2022-09-09T18:01:52;17.20;99.90
60717;DHT22;46566;52.700;6.192;2022-09-09T18:04:18;17.20;99.90
60717;DHT22;46566;52.700;6.192;2022-09-09T18:09:24;17.00;99.90
60717;DHT22;46566;52.700;6.192;2022-09-09T18:11:53;17.00;99.90
60717;DHT22;46566;52.700;6.192;2022-09-09T18:14:22;16.90;99.90
60717;DHT22;46566;52.700;6.192;2022-09-09T18:16:49;16.90;99.90
60717;DHT22;46566;52.700;6.192;2022-09-09T18:19:19;16.90;99.90
60717;DHT22;46566;52.700;6.192;2022-09-09T18:21:45;16.80;99.90
60717;DHT22;46566;52.700;6.192;2022-09-09T18:24:12;16.80;99.90
60717;DHT22;46566;52.700;6.192;2022-09-09T18:26:39;16.80;99.90
60717;DHT22;46566;52.700;6.192;2022-09-09T18:29:14;16.80;99.90
60717;DHT22;46566;52.700;6.192;2022-09-09T18:31:40;16.70;99.90
60717;DHT22;46566;52.700;6.192;2022-09-09T18:34:09;16.70;99.90
60717;DHT22;46566;52.700;6.192;2022-09-09T18:36:42;16.70;99.90
60717;DHT22;46566;52.700;6.192;2022-09-09T18:39:10;16.70;99.90
60717;DHT22;46566;52.700;6.192;2022-09-09T18:41:42;16.60;99.90
60717;DHT22;46566;52.700;6.192;2022-09-09T18:44:20;16.60;99.90
60717;DHT22;46566;52.700;6.192;2022-09-09T18:46:47;16.60;99.90
60717;DHT22;46566;52.700;6.192;2022-09-09T18:49:13;16.60;99.90
60717;DHT22;46566;52.700;6.192;2022-09-09T18:51:43;16.60;99.90
60717;DHT22;46566;52.700;6.192;2022-09-09T18:54:14;16.50;99.90
60717;DHT22;46566;52.700;6.192;2022-09-09T18:56:41;16.60;99.90
60717;DHT22;46566;52.700;6.192;2022-09-09T18:59:10;16.50;99.90
60717;DHT22;46566;52.700;6.192;2022-09-09T19:01:43;16.50;99.90
60717;DHT22;46566;52.700;6.192;2022-09-09T19:04:10;16.50;99.90
60717;DHT22;46566;52.700;6.192;2022-09-09T19:06:40;16.50;99.90
60717;DHT22;46566;52.700;6.192;2022-09-09T19:09:09;16.50;99.90
60717;DHT22;46566;52.700;6.192;2022-09-09T19:11:36;16.50;99.90
60717;DHT22;46566;52.700;6.192;2022-09-09T19:14:04;16.50;99.90
60717;DHT22;46566;52.700;6.192;2022-09-09T19:16:31;16.50;99.90
60717;DHT22;46566;52.700;6.192;2022-09-09T19:19:03;16.50;99.90
60717;DHT22;46566;52.700;6.192;2022-09-09T19:21:36;16.40;99.90
60717;DHT22;46566;52.700;6.192;2022-09-09T19:24:10;16.40;99.90
60717;DHT22;46566;52.700;6.192;2022-09-09T19:26:39;16.40;99.90
60717;DHT22;46566;52.700;6.192;2022-09-09T19:29:06;16.40;99.90
60717;DHT22;46566;52.700;6.192;2022-09-09T19:31:35;16.40;99.90